Island Venture — WDG3765 — position and weather

sailwx.info

Track history (hours):
 
Tides and Currents Weather Stations Pressure Air Temp Water Temp Dewpoint Dewpoint Depression Visibility Wind Speed Wind Dir Waves Ship Positions

Island Venture

Owner: Island Tug and Barge, Seattle, WA. More information available from US FCC via Universal Licensing System and Coast Guard Vessel Documentation Center.

Last reported at 2016-Dec-08 04:33 UTC. Time now 2016-Dec-09 05:58 UTC.
Position N 47°09' W 122°53'.

Type: Tug. MMSI: 367529420.

Date/timePositionNaut miles runAvg speedWind from/ knotsBaromVisibWave heightAir tempDewpointWater temp
2016-Dec-08 04:33N 47°09' W 122°53'8 6.4
2016-Dec-08 03:14N 47°11' W 122°41'6 7.0
2016-Dec-08 02:23N 47°15' W 122°34'6 7.0
2016-Dec-08 01:33N 47°21' W 122°32'7 6.9
2016-Dec-08 00:33N 47°28' W 122°31'7 7.2
2016-Dec-07 23:33N 47°34' W 122°27'3 3.3
2016-Dec-07 22:33N 47°35' W 122°22'0 0.0
2016-Dec-07 21:33N 47°35' W 122°22'0 0.0
2016-Dec-07 20:33N 47°35' W 122°22'1 1.4
2016-Dec-07 19:33N 47°34' W 122°21'1 1.4
2016-Dec-07 18:33N 47°35' W 122°22'2 1.6
2016-Dec-07 17:33N 47°34' W 122°21'2 1.6
2016-Dec-07 16:33N 47°35' W 122°22'3 2.7
2016-Dec-07 15:34N 47°33' W 122°20'2 1.7
2016-Dec-07 14:33N 47°34' W 122°21'2 2.3
2016-Dec-07 13:33N 47°36' W 122°24'4 4.2
2016-Dec-07 12:33N 47°33' W 122°28'6 6.1
2016-Dec-07 11:33N 47°27' W 122°31'7 6.9
2016-Dec-07 10:33N 47°20' W 122°33'7 7.5
2016-Dec-07 09:33N 47°13' W 122°35'5 4.6
2016-Dec-07 08:23N 47°08' W 122°39'0 0.1
2016-Dec-07 07:33N 47°08' W 122°39'0 0.0
2016-Dec-07 05:18N 47°08' W 122°39'3 3.2
2016-Dec-07 04:17N 47°11' W 122°37'6 8.4
2016-Dec-07 03:33N 47°17' W 122°33'8 7.7
2016-Dec-07 02:33N 47°24' W 122°32'4 4.0
2016-Dec-07 01:33N 47°28' W 122°31'7 6.6
2016-Dec-07 00:33N 47°22' W 122°32'7 7.2
2016-Dec-06 23:33N 47°15' W 122°34'7 6.4
2016-Dec-06 22:25N 47°08' W 122°39'0 0.3
2016-Dec-06 21:23N 47°08' W 122°39'0 0.0
2016-Dec-06 20:16N 47°08' W 122°39'0 0.0
2016-Dec-06 18:28N 47°08' W 122°39'3 1.0
2016-Dec-06 15:18N 47°11' W 122°37'810.2
2016-Dec-06 14:33N 47°18' W 122°33'8 8.1
2016-Dec-06 13:33N 47°26' W 122°31'8 8.0
2016-Dec-06 12:33N 47°34' W 122°27'4 3.7
2016-Dec-06 11:34N 47°35' W 122°22'0 0.5
2016-Dec-06 10:33N 47°34' W 122°21'0 0.0
2016-Dec-06 09:33N 47°34' W 122°21'0 0.0
2016-Dec-06 08:33N 47°34' W 122°21'0 0.0
2016-Dec-06 07:33N 47°34' W 122°21'0 0.0
2016-Dec-06 06:33N 47°34' W 122°21'0 0.0
2016-Dec-06 05:33N 47°34' W 122°21'1 0.6
2016-Dec-06 04:33N 47°34' W 122°21'2 2.2
2016-Dec-06 03:33N 47°36' W 122°22'4 4.2
2016-Dec-06 02:33N 47°39' W 122°27'6 6.4
2016-Dec-06 01:33N 47°45' W 122°27'6 6.4
2016-Dec-06 00:33N 47°51' W 122°29'6 5.9
2016-Dec-05 23:33N 47°56' W 122°33'5 5.1
2016-Dec-05 22:33N 48°01' W 122°38'12 4.2
2016-Dec-05 19:32N 48°11' W 122°47'12 5.5
2016-Dec-05 17:22N 48°23' W 122°45'4 5.2
2016-Dec-05 16:32N 48°27' W 122°44'4 3.5
2016-Dec-05 15:28N 48°31' W 122°44'3 3.1
2016-Dec-05 14:33N 48°34' W 122°45'3 2.6
2016-Dec-05 13:33N 48°37' W 122°45'4 4.0
2016-Dec-05 12:33N 48°40' W 122°44'14 6.2
2016-Dec-05 10:23N 48°50' W 122°59'6 7.7
2016-Dec-05 09:32N 48°53' W 123°07'8 8.0
2016-Dec-05 08:33N 48°59' W 123°16'7 7.2
2016-Dec-05 07:33N 49°03' W 123°24'7 6.8
2016-Dec-05 06:33N 49°10' W 123°23'6 6.3
2016-Dec-05 05:33N 49°16' W 123°19'3 2.5
2016-Dec-05 04:33N 49°15' W 123°15'0 0.0
2016-Dec-05 03:33N 49°15' W 123°15'0 0.0
2016-Dec-05 02:31N 49°15' W 123°15'0 0.0
2016-Dec-05 01:33N 49°15' W 123°15'0 0.0
2016-Dec-05 00:32N 49°15' W 123°15'0 0.0
2016-Dec-04 23:32N 49°15' W 123°15'0 0.0
2016-Dec-04 22:33N 49°15' W 123°15'0 0.0
2016-Dec-04 21:33N 49°15' W 123°15'0 0.0
2016-Dec-04 20:33N 49°15' W 123°15'0 0.0
2016-Dec-04 19:33N 49°15' W 123°15'0 0.0
2016-Dec-04 18:33N 49°15' W 123°15'0 0.0
2016-Dec-04 17:33N 49°15' W 123°15'0 0.0
2016-Dec-04 16:32N 49°15' W 123°15'0 0.0
2016-Dec-04 15:33N 49°15' W 123°15'0 0.0
2016-Dec-04 14:32N 49°15' W 123°15'0 0.0
2016-Dec-04 13:33N 49°15' W 123°15'2 1.7
2016-Dec-04 12:33N 49°16' W 123°18'5 4.9
2016-Dec-04 11:33N 49°11' W 123°20'7 6.6
2016-Dec-04 10:33N 49°05' W 123°21'8 7.6
2016-Dec-04 09:33N 48°59' W 123°12'7 7.2
2016-Dec-04 08:33N 48°54' W 123°04'7 7.1
2016-Dec-04 07:33N 48°50' W 122°56'7 6.9
2016-Dec-04 06:33N 48°46' W 122°47'7 6.6
2016-Dec-04 05:33N 48°40' W 122°42'6 6.3
2016-Dec-04 04:33N 48°35' W 122°45'7 6.8
2016-Dec-04 03:33N 48°28' W 122°44'23 6.9
2016-Dec-04 00:13N 48°05' W 122°38'6 7.8
2016-Dec-03 23:23N 47°59' W 122°35'7 8.0
2016-Dec-03 22:33N 47°54' W 122°28'8 8.2
2016-Dec-03 21:33N 47°46' W 122°25'8 8.1
2016-Dec-03 20:33N 47°38' W 122°25'4 4.4
2016-Dec-03 19:33N 47°34' W 122°21'1 0.9
2016-Dec-03 18:33N 47°34' W 122°21'0 0.1
2016-Dec-03 17:33N 47°34' W 122°21'1 0.9
2016-Dec-03 16:33N 47°33' W 122°20'1 1.2
2016-Dec-03 15:33N 47°34' W 122°21'1 0.8
2016-Dec-03 14:33N 47°35' W 122°22'1 0.7
2016-Dec-03 13:34N 47°35' W 122°22'0 0.0
2016-Dec-03 12:33N 47°35' W 122°22'0 0.0
2016-Dec-03 11:33N 47°35' W 122°22'1 0.6
2016-Dec-03 10:33N 47°35' W 122°22'1 1.1
2016-Dec-03 09:33N 47°34' W 122°21'2 2.0
2016-Dec-03 08:33N 47°36' W 122°22'5 4.9
2016-Dec-03 07:33N 47°32' W 122°27'7 7.4
2016-Dec-03 06:33N 47°25' W 122°32'9 8.3
2016-Dec-03 05:30N 47°17' W 122°33'6 0.3
2016-Dec-02 10:19N 47°23' W 122°32'5 6.5
2016-Dec-02 09:33N 47°28' W 122°31'6 6.0
2016-Dec-02 08:33N 47°33' W 122°27'4 3.8
2016-Dec-02 07:33N 47°35' W 122°22'0 0.0
2016-Dec-02 06:33N 47°35' W 122°22'0 0.0
2016-Dec-02 05:33N 47°35' W 122°22'1 0.9
2016-Dec-02 04:33N 47°34' W 122°21'0 0.0
2016-Dec-02 03:33N 47°34' W 122°21'0 0.0
2016-Dec-02 02:33N 47°34' W 122°21'0 0.0
2016-Dec-02 01:33N 47°34' W 122°21'0 0.0
2016-Dec-02 00:33N 47°34' W 122°21'1 1.0
2016-Dec-01 23:33N 47°35' W 122°22'3 2.7
2016-Dec-01 22:33N 47°33' W 122°20'1 0.6
2016-Dec-01 21:33N 47°33' W 122°21'3 3.0
2016-Dec-01 20:33N 47°36' W 122°22'4 4.3
2016-Dec-01 19:33N 47°32' W 122°25'7 7.1
2016-Dec-01 18:32N 47°25' W 122°23'6 6.0
2016-Dec-01 17:32N 47°20' W 122°26'2 0.4
2016-Dec-01 12:17N 47°18' W 122°27'5 7.2
2016-Dec-01 11:31N 47°22' W 122°21'7 6.8
2016-Dec-01 10:33N 47°29' W 122°23'7 7.4
2016-Dec-01 09:33N 47°36' W 122°24'2 2.2
2016-Dec-01 08:34N 47°34' W 122°21'0 0.1
2016-Dec-01 07:33N 47°35' W 122°21'4 3.8
2016-Dec-01 06:33N 47°33' W 122°27'8 7.7
2016-Dec-01 05:33N 47°26' W 122°31'11 8.3
2016-Dec-01 04:15N 47°16' W 122°34'3 0.2
2016-Nov-30 09:33N 47°19' W 122°33'7 6.5
2016-Nov-30 08:33N 47°25' W 122°32'6 6.0
2016-Nov-30 07:33N 47°31' W 122°29'6 6.3
2016-Nov-30 06:33N 47°36' W 122°23'1 1.1
2016-Nov-30 05:33N 47°35' W 122°22'0 0.0
2016-Nov-30 04:33N 47°35' W 122°22'0 0.1
2016-Nov-30 03:33N 47°35' W 122°22'4 3.6
2016-Nov-30 02:33N 47°33' W 122°27'7 7.1
2016-Nov-30 01:33N 47°27' W 122°31'7 6.8
2016-Nov-30 00:33N 47°20' W 122°33'5 4.7
2016-Nov-29 23:33N 47°15' W 122°34'6 5.7
2016-Nov-29 22:33N 47°10' W 122°38'2 2.4
2016-Nov-29 21:33N 47°08' W 122°39'0 0.0
2016-Nov-29 20:33N 47°08' W 122°39'0 0.0
2016-Nov-29 19:33N 47°08' W 122°39'0 0.0
2016-Nov-29 18:33N 47°08' W 122°39'0 0.0
2016-Nov-29 17:31N 47°08' W 122°39'1 0.5
2016-Nov-29 16:27N 47°09' W 122°38'0 0.0
2016-Nov-29 15:30N 47°09' W 122°38'1 1.3
2016-Nov-29 14:33N 47°10' W 122°39'7 6.6
2016-Nov-29 13:33N 47°15' W 122°34'9 8.5
2016-Nov-29 12:33N 47°24' W 122°32'8 8.1
2016-Nov-29 11:33N 47°31' W 122°28'6 5.6
2016-Nov-29 10:33N 47°34' W 122°21'1 0.7
2016-Nov-29 09:33N 47°34' W 122°21'1 0.9
2016-Nov-29 08:33N 47°33' W 122°20'1 1.0
2016-Nov-29 07:33N 47°34' W 122°21'0 0.4
2016-Nov-29 06:33N 47°34' W 122°21'3 3.4
2016-Nov-29 05:33N 47°34' W 122°26'7 7.2
2016-Nov-29 04:33N 47°28' W 122°31'7 7.5
2016-Nov-29 03:33N 47°20' W 122°33'8 8.4
2016-Nov-29 02:33N 47°12' W 122°37'13 1.0
2016-Nov-28 13:17N 47°12' W 122°56'3 3.5
2016-Nov-28 12:18N 47°09' W 122°53'4 5.4
2016-Nov-28 11:32N 47°10' W 122°47'6 6.3
2016-Nov-28 10:33N 47°11' W 122°38'9 8.8
2016-Nov-28 09:33N 47°20' W 122°33'7 7.2
2016-Nov-28 08:33N 47°27' W 122°31'7 7.5
2016-Nov-28 07:33N 47°34' W 122°27'4 3.7
2016-Nov-28 06:33N 47°35' W 122°22'1 0.7
2016-Nov-28 05:33N 47°34' W 122°21'0 0.0
2016-Nov-28 04:33N 47°34' W 122°21'  
Track history (hours):
 
Tides and Currents Weather Stations Pressure Air Temp Water Temp Dewpoint Dewpoint Depression Visibility Wind Speed Wind Dir Waves Ship Positions

Island Venture

Owner: Island Tug and Barge, Seattle, WA. More information available from US FCC via Universal Licensing System and Coast Guard Vessel Documentation Center.

Last reported at 2016-Dec-08 04:33 UTC. Time now 2016-Dec-09 05:58 UTC.
Position N 47°09' W 122°53'.

Type: Tug. MMSI: 367529420.

Date/timePositionNaut miles runAvg speedWind from/ knotsBaromVisibWave heightAir tempDewpointWater temp
2016-Dec-08 04:33N 47°09' W 122°53'8 6.4
2016-Dec-08 03:14N 47°11' W 122°41'6 7.0
2016-Dec-08 02:23N 47°15' W 122°34'6 7.0
2016-Dec-08 01:33N 47°21' W 122°32'7 6.9
2016-Dec-08 00:33N 47°28' W 122°31'7 7.2
2016-Dec-07 23:33N 47°34' W 122°27'3 3.3
2016-Dec-07 22:33N 47°35' W 122°22'0 0.0
2016-Dec-07 21:33N 47°35' W 122°22'0 0.0
2016-Dec-07 20:33N 47°35' W 122°22'1 1.4
2016-Dec-07 19:33N 47°34' W 122°21'1 1.4
2016-Dec-07 18:33N 47°35' W 122°22'2 1.6
2016-Dec-07 17:33N 47°34' W 122°21'2 1.6
2016-Dec-07 16:33N 47°35' W 122°22'3 2.7
2016-Dec-07 15:34N 47°33' W 122°20'2 1.7
2016-Dec-07 14:33N 47°34' W 122°21'2 2.3
2016-Dec-07 13:33N 47°36' W 122°24'4 4.2
2016-Dec-07 12:33N 47°33' W 122°28'6 6.1
2016-Dec-07 11:33N 47°27' W 122°31'7 6.9
2016-Dec-07 10:33N 47°20' W 122°33'7 7.5
2016-Dec-07 09:33N 47°13' W 122°35'5 4.6
2016-Dec-07 08:23N 47°08' W 122°39'0 0.1
2016-Dec-07 07:33N 47°08' W 122°39'0 0.0
2016-Dec-07 05:18N 47°08' W 122°39'3 3.2
2016-Dec-07 04:17N 47°11' W 122°37'6 8.4
2016-Dec-07 03:33N 47°17' W 122°33'8 7.7
2016-Dec-07 02:33N 47°24' W 122°32'4 4.0
2016-Dec-07 01:33N 47°28' W 122°31'7 6.6
2016-Dec-07 00:33N 47°22' W 122°32'7 7.2
2016-Dec-06 23:33N 47°15' W 122°34'7 6.4
2016-Dec-06 22:25N 47°08' W 122°39'0 0.3
2016-Dec-06 21:23N 47°08' W 122°39'0 0.0
2016-Dec-06 20:16N 47°08' W 122°39'0 0.0
2016-Dec-06 18:28N 47°08' W 122°39'3 1.0
2016-Dec-06 15:18N 47°11' W 122°37'810.2
2016-Dec-06 14:33N 47°18' W 122°33'8 8.1
2016-Dec-06 13:33N 47°26' W 122°31'8 8.0
2016-Dec-06 12:33N 47°34' W 122°27'4 3.7
2016-Dec-06 11:34N 47°35' W 122°22'0 0.5
2016-Dec-06 10:33N 47°34' W 122°21'0 0.0
2016-Dec-06 09:33N 47°34' W 122°21'0 0.0
2016-Dec-06 08:33N 47°34' W 122°21'0 0.0
2016-Dec-06 07:33N 47°34' W 122°21'0 0.0
2016-Dec-06 06:33N 47°34' W 122°21'0 0.0
2016-Dec-06 05:33N 47°34' W 122°21'1 0.6
2016-Dec-06 04:33N 47°34' W 122°21'2 2.2
2016-Dec-06 03:33N 47°36' W 122°22'4 4.2
2016-Dec-06 02:33N 47°39' W 122°27'6 6.4
2016-Dec-06 01:33N 47°45' W 122°27'6 6.4
2016-Dec-06 00:33N 47°51' W 122°29'6 5.9
2016-Dec-05 23:33N 47°56' W 122°33'5 5.1
2016-Dec-05 22:33N 48°01' W 122°38'12 4.2
2016-Dec-05 19:32N 48°11' W 122°47'12 5.5
2016-Dec-05 17:22N 48°23' W 122°45'4 5.2
2016-Dec-05 16:32N 48°27' W 122°44'4 3.5
2016-Dec-05 15:28N 48°31' W 122°44'3 3.1
2016-Dec-05 14:33N 48°34' W 122°45'3 2.6
2016-Dec-05 13:33N 48°37' W 122°45'4 4.0
2016-Dec-05 12:33N 48°40' W 122°44'14 6.2
2016-Dec-05 10:23N 48°50' W 122°59'6 7.7
2016-Dec-05 09:32N 48°53' W 123°07'8 8.0
2016-Dec-05 08:33N 48°59' W 123°16'7 7.2
2016-Dec-05 07:33N 49°03' W 123°24'7 6.8
2016-Dec-05 06:33N 49°10' W 123°23'6 6.3
2016-Dec-05 05:33N 49°16' W 123°19'3 2.5
2016-Dec-05 04:33N 49°15' W 123°15'0 0.0
2016-Dec-05 03:33N 49°15' W 123°15'0 0.0
2016-Dec-05 02:31N 49°15' W 123°15'0 0.0
2016-Dec-05 01:33N 49°15' W 123°15'0 0.0
2016-Dec-05 00:32N 49°15' W 123°15'0 0.0
2016-Dec-04 23:32N 49°15' W 123°15'0 0.0
2016-Dec-04 22:33N 49°15' W 123°15'0 0.0
2016-Dec-04 21:33N 49°15' W 123°15'0 0.0
2016-Dec-04 20:33N 49°15' W 123°15'0 0.0
2016-Dec-04 19:33N 49°15' W 123°15'0 0.0
2016-Dec-04 18:33N 49°15' W 123°15'0 0.0
2016-Dec-04 17:33N 49°15' W 123°15'0 0.0
2016-Dec-04 16:32N 49°15' W 123°15'0 0.0
2016-Dec-04 15:33N 49°15' W 123°15'0 0.0
2016-Dec-04 14:32N 49°15' W 123°15'0 0.0
2016-Dec-04 13:33N 49°15' W 123°15'2 1.7
2016-Dec-04 12:33N 49°16' W 123°18'5 4.9
2016-Dec-04 11:33N 49°11' W 123°20'7 6.6
2016-Dec-04 10:33N 49°05' W 123°21'8 7.6
2016-Dec-04 09:33N 48°59' W 123°12'7 7.2
2016-Dec-04 08:33N 48°54' W 123°04'7 7.1
2016-Dec-04 07:33N 48°50' W 122°56'7 6.9
2016-Dec-04 06:33N 48°46' W 122°47'7 6.6
2016-Dec-04 05:33N 48°40' W 122°42'6 6.3
2016-Dec-04 04:33N 48°35' W 122°45'7 6.8
2016-Dec-04 03:33N 48°28' W 122°44'23 6.9
2016-Dec-04 00:13N 48°05' W 122°38'6 7.8
2016-Dec-03 23:23N 47°59' W 122°35'7 8.0
2016-Dec-03 22:33N 47°54' W 122°28'8 8.2
2016-Dec-03 21:33N 47°46' W 122°25'8 8.1
2016-Dec-03 20:33N 47°38' W 122°25'4 4.4
2016-Dec-03 19:33N 47°34' W 122°21'1 0.9
2016-Dec-03 18:33N 47°34' W 122°21'0 0.1
2016-Dec-03 17:33N 47°34' W 122°21'1 0.9
2016-Dec-03 16:33N 47°33' W 122°20'1 1.2
2016-Dec-03 15:33N 47°34' W 122°21'1 0.8
2016-Dec-03 14:33N 47°35' W 122°22'1 0.7
2016-Dec-03 13:34N 47°35' W 122°22'0 0.0
2016-Dec-03 12:33N 47°35' W 122°22'0 0.0
2016-Dec-03 11:33N 47°35' W 122°22'1 0.6
2016-Dec-03 10:33N 47°35' W 122°22'1 1.1
2016-Dec-03 09:33N 47°34' W 122°21'2 2.0
2016-Dec-03 08:33N 47°36' W 122°22'5 4.9
2016-Dec-03 07:33N 47°32' W 122°27'7 7.4
2016-Dec-03 06:33N 47°25' W 122°32'9 8.3
2016-Dec-03 05:30N 47°17' W 122°33'6 0.3
2016-Dec-02 10:19N 47°23' W 122°32'5 6.5
2016-Dec-02 09:33N 47°28' W 122°31'6 6.0
2016-Dec-02 08:33N 47°33' W 122°27'4 3.8
2016-Dec-02 07:33N 47°35' W 122°22'0 0.0
2016-Dec-02 06:33N 47°35' W 122°22'0 0.0
2016-Dec-02 05:33N 47°35' W 122°22'1 0.9
2016-Dec-02 04:33N 47°34' W 122°21'0 0.0
2016-Dec-02 03:33N 47°34' W 122°21'0 0.0
2016-Dec-02 02:33N 47°34' W 122°21'0 0.0
2016-Dec-02 01:33N 47°34' W 122°21'0 0.0
2016-Dec-02 00:33N 47°34' W 122°21'1 1.0
2016-Dec-01 23:33N 47°35' W 122°22'3 2.7
2016-Dec-01 22:33N 47°33' W 122°20'1 0.6
2016-Dec-01 21:33N 47°33' W 122°21'3 3.0
2016-Dec-01 20:33N 47°36' W 122°22'4 4.3
2016-Dec-01 19:33N 47°32' W 122°25'7 7.1
2016-Dec-01 18:32N 47°25' W 122°23'6 6.0
2016-Dec-01 17:32N 47°20' W 122°26'2 0.4
2016-Dec-01 12:17N 47°18' W 122°27'5 7.2
2016-Dec-01 11:31N 47°22' W 122°21'7 6.8
2016-Dec-01 10:33N 47°29' W 122°23'7 7.4
2016-Dec-01 09:33N 47°36' W 122°24'2 2.2
2016-Dec-01 08:34N 47°34' W 122°21'0 0.1
2016-Dec-01 07:33N 47°35' W 122°21'4 3.8
2016-Dec-01 06:33N 47°33' W 122°27'8 7.7
2016-Dec-01 05:33N 47°26' W 122°31'11 8.3
2016-Dec-01 04:15N 47°16' W 122°34'3 0.2
2016-Nov-30 09:33N 47°19' W 122°33'7 6.5
2016-Nov-30 08:33N 47°25' W 122°32'6 6.0
2016-Nov-30 07:33N 47°31' W 122°29'6 6.3
2016-Nov-30 06:33N 47°36' W 122°23'1 1.1
2016-Nov-30 05:33N 47°35' W 122°22'0 0.0
2016-Nov-30 04:33N 47°35' W 122°22'0 0.1
2016-Nov-30 03:33N 47°35' W 122°22'4 3.6
2016-Nov-30 02:33N 47°33' W 122°27'7 7.1
2016-Nov-30 01:33N 47°27' W 122°31'7 6.8
2016-Nov-30 00:33N 47°20' W 122°33'5 4.7
2016-Nov-29 23:33N 47°15' W 122°34'6 5.7
2016-Nov-29 22:33N 47°10' W 122°38'2 2.4
2016-Nov-29 21:33N 47°08' W 122°39'0 0.0
2016-Nov-29 20:33N 47°08' W 122°39'0 0.0
2016-Nov-29 19:33N 47°08' W 122°39'0 0.0
2016-Nov-29 18:33N 47°08' W 122°39'0 0.0
2016-Nov-29 17:31N 47°08' W 122°39'1 0.5
2016-Nov-29 16:27N 47°09' W 122°38'0 0.0
2016-Nov-29 15:30N 47°09' W 122°38'1 1.3
2016-Nov-29 14:33N 47°10' W 122°39'7 6.6
2016-Nov-29 13:33N 47°15' W 122°34'9 8.5
2016-Nov-29 12:33N 47°24' W 122°32'8 8.1
2016-Nov-29 11:33N 47°31' W 122°28'6 5.6
2016-Nov-29 10:33N 47°34' W 122°21'1 0.7
2016-Nov-29 09:33N 47°34' W 122°21'1 0.9
2016-Nov-29 08:33N 47°33' W 122°20'1 1.0
2016-Nov-29 07:33N 47°34' W 122°21'0 0.4
2016-Nov-29 06:33N 47°34' W 122°21'3 3.4
2016-Nov-29 05:33N 47°34' W 122°26'7 7.2
2016-Nov-29 04:33N 47°28' W 122°31'7 7.5
2016-Nov-29 03:33N 47°20' W 122°33'8 8.4
2016-Nov-29 02:33N 47°12' W 122°37'13 1.0
2016-Nov-28 13:17N 47°12' W 122°56'3 3.5
2016-Nov-28 12:18N 47°09' W 122°53'4 5.4
2016-Nov-28 11:32N 47°10' W 122°47'6 6.3
2016-Nov-28 10:33N 47°11' W 122°38'9 8.8
2016-Nov-28 09:33N 47°20' W 122°33'7 7.2
2016-Nov-28 08:33N 47°27' W 122°31'7 7.5
2016-Nov-28 07:33N 47°34' W 122°27'4 3.7
2016-Nov-28 06:33N 47°35' W 122°22'1 0.7
2016-Nov-28 05:33N 47°34' W 122°21'0 0.0
2016-Nov-28 04:33N 47°34' W 122°21'  

Dump ship's entire track history